createdAt,value
2018-09-11T00:03:21.242Z,3.03
2018-09-11T00:13:25.922Z,2.80
2018-09-11T00:23:30.673Z,2.73
2018-09-11T00:33:35.241Z,2.60
2018-09-11T00:43:40.046Z,2.80
2018-09-11T00:53:44.804Z,2.60
2018-09-11T01:03:49.743Z,2.77
2018-09-11T01:13:54.276Z,2.83
2018-09-11T01:23:58.819Z,2.70
2018-09-11T01:34:03.583Z,2.47
2018-09-11T01:44:08.830Z,2.77
2018-09-11T01:54:13.600Z,2.63
2018-09-11T02:04:18.169Z,2.87
2018-09-11T02:14:22.794Z,2.87
2018-09-11T02:24:27.512Z,2.70
2018-09-11T02:34:32.492Z,2.77
2018-09-11T02:44:37.052Z,2.80
2018-09-11T02:54:42.948Z,2.70
2018-09-11T03:04:48.551Z,2.57
2018-09-11T03:14:53.176Z,2.47
2018-09-11T03:24:57.846Z,2.30
2018-09-11T03:35:02.637Z,2.53
2018-09-11T03:45:07.730Z,2.40
2018-09-11T03:55:12.267Z,2.53
2018-09-11T04:05:18.153Z,2.83
2018-09-11T04:15:22.792Z,2.70
2018-09-11T04:25:27.381Z,2.53
2018-09-11T04:35:32.129Z,2.40
2018-09-11T04:45:36.784Z,2.23
2018-09-11T04:55:41.457Z,2.50
2018-09-11T05:05:46.108Z,2.57
2018-09-11T05:15:51.179Z,2.63
2018-09-11T05:25:55.924Z,2.70
2018-09-11T05:36:00.794Z,2.23
2018-09-11T05:46:05.504Z,2.50
2018-09-11T05:56:10.160Z,2.47
2018-09-11T06:06:14.900Z,2.50
2018-09-11T06:16:20.761Z,2.50
2018-09-11T06:26:25.408Z,2.47
2018-09-11T06:36:29.974Z,2.40
2018-09-11T06:46:35.128Z,2.47
2018-09-11T06:56:39.754Z,2.17
2018-09-11T07:06:44.328Z,2.30
2018-09-11T07:16:48.958Z,2.20
2018-09-11T07:26:53.641Z,2.10
2018-09-11T07:36:58.972Z,2.30
2018-09-11T07:47:03.661Z,2.33
2018-09-11T07:57:08.227Z,2.17
2018-09-11T08:07:13.138Z,2.47
2018-09-11T08:17:17.677Z,2.30
2018-09-11T08:27:22.420Z,2.20
2018-09-11T08:37:27.050Z,2.20
2018-09-11T08:47:31.799Z,2.40
2018-09-11T08:57:36.388Z,2.10
2018-09-11T09:07:40.929Z,2.23
2018-09-11T09:17:46.725Z,2.10
2018-09-11T09:27:51.404Z,2.30
2018-09-11T09:37:55.939Z,2.30
2018-09-11T09:48:00.576Z,2.03
2018-09-11T09:58:05.264Z,2.07
2018-09-11T10:08:09.813Z,2.10
2018-09-11T10:18:14.476Z,2.03
2018-09-11T10:28:19.098Z,2.10
2018-09-11T10:38:23.813Z,2.00
2018-09-11T10:48:28.684Z,2.00
2018-09-11T10:58:33.345Z,3.23
2018-09-11T11:08:37.876Z,2.87
2018-09-11T11:18:42.428Z,2.93
2018-09-11T11:28:47.011Z,2.60
2018-09-11T11:38:51.555Z,2.50
2018-09-11T11:48:56.147Z,2.80
2018-09-11T11:59:00.911Z,2.53
2018-09-11T12:09:08.249Z,2.70
2018-09-11T12:19:12.792Z,2.50
2018-09-11T12:29:17.434Z,2.70
2018-09-11T12:39:22.106Z,2.63
2018-09-11T12:49:26.840Z,2.57
2018-09-11T12:59:31.709Z,2.77
2018-09-11T13:09:36.400Z,2.60
2018-09-11T13:19:42.126Z,2.47
2018-09-11T13:29:46.800Z,2.73
2018-09-11T13:39:51.347Z,2.60
2018-09-11T13:49:56.044Z,2.30
2018-09-11T14:00:01.037Z,2.40
2018-09-11T14:10:05.898Z,2.50
2018-09-11T14:20:11.677Z,2.40
2018-09-11T14:30:16.236Z,2.37
2018-09-11T14:40:20.964Z,2.43
2018-09-11T14:50:25.713Z,2.30
2018-09-11T15:00:30.307Z,2.30
2018-09-11T15:10:36.187Z,2.13
2018-09-11T15:20:40.840Z,2.83
2018-09-11T15:30:45.478Z,2.30
2018-09-11T15:40:50.351Z,2.53
2018-09-11T15:50:54.923Z,2.30
2018-09-11T16:00:59.705Z,2.20
2018-09-11T16:11:04.365Z,2.20
2018-09-11T16:21:09.083Z,2.40
2018-09-11T16:31:14.505Z,2.30
2018-09-11T16:41:19.024Z,2.23
2018-09-11T16:51:23.655Z,2.30
2018-09-11T17:01:28.209Z,2.10
2018-09-11T17:11:32.921Z,2.20
2018-09-11T17:21:37.680Z,2.10
2018-09-11T17:31:43.577Z,1.90
2018-09-11T17:41:48.288Z,1.90
2018-09-11T17:51:52.965Z,1.90
2018-09-11T18:01:57.584Z,2.07
2018-09-11T18:12:02.321Z,2.00
2018-09-11T18:22:07.155Z,2.00
2018-09-11T18:32:11.713Z,2.00
2018-09-11T18:42:16.316Z,2.10
2018-09-11T18:52:20.958Z,1.80
2018-09-11T19:02:25.642Z,2.03
2018-09-11T19:12:30.359Z,2.00
2018-09-11T19:22:34.917Z,2.20
2018-09-11T19:32:39.865Z,2.10
2018-09-11T19:42:44.435Z,2.20
2018-09-11T19:52:49.251Z,2.10
2018-09-11T20:02:53.831Z,2.17
2018-09-11T20:12:58.656Z,2.10
2018-09-11T20:23:03.280Z,1.80
2018-09-11T20:33:08.026Z,1.90
2018-09-11T20:43:12.563Z,2.03
2018-09-11T20:53:17.859Z,1.90
2018-09-11T21:03:22.420Z,2.03
2018-09-11T21:13:26.968Z,1.80
2018-09-11T21:23:31.505Z,1.90
2018-09-11T21:33:36.864Z,2.00
2018-09-11T21:43:41.492Z,2.00
2018-09-11T21:53:46.059Z,1.70
2018-09-11T22:03:50.677Z,1.97
2018-09-11T22:13:55.373Z,1.90
2018-09-11T22:24:00.043Z,2.00
2018-09-11T22:34:04.601Z,1.80
2018-09-11T22:44:09.469Z,1.80
2018-09-11T22:54:14.003Z,1.70
2018-09-11T23:04:18.564Z,1.90
2018-09-11T23:14:23.209Z,1.77
2018-09-11T23:24:27.955Z,1.80
2018-09-11T23:34:32.639Z,1.90
2018-09-11T23:44:37.413Z,1.77
2018-09-11T23:54:41.950Z,1.77
